createdAt,value
2022-11-29T00:01:56.369Z,35.85
2022-11-29T00:04:43.136Z,38.92
2022-11-29T00:07:30.775Z,47.05
2022-11-29T00:10:17.118Z,40.70
2022-11-29T00:13:03.364Z,40.17
2022-11-29T00:15:49.511Z,41.58
2022-11-29T00:18:35.817Z,44.75
2022-11-29T00:21:22.198Z,44.80
2022-11-29T00:24:10.191Z,34.13
2022-11-29T00:26:56.143Z,34.03
2022-11-29T00:29:42.269Z,31.33
2022-11-29T00:32:28.509Z,43.08
2022-11-29T00:35:14.981Z,44.80
2022-11-29T00:38:01.176Z,36.58
2022-11-29T00:40:53.128Z,46.28
2022-11-29T00:43:40.435Z,34.13
2022-11-29T00:46:26.893Z,28.70
2022-11-29T00:49:13.319Z,49.88
2022-11-29T00:52:00.648Z,27.65
2022-11-29T00:54:46.797Z,49.10
2022-11-29T00:57:34.563Z,37.55
2022-11-29T01:00:21.499Z,29.65
2022-11-29T01:03:08.027Z,35.83
2022-11-29T01:05:54.526Z,30.50
2022-11-29T01:08:41.063Z,43.08
2022-11-29T01:11:28.405Z,34.88
2022-11-29T01:14:16.315Z,47.95
2022-11-29T01:17:02.734Z,38.08
2022-11-29T01:19:50.991Z,39.13
2022-11-29T01:22:37.628Z,42.63
2022-11-29T01:25:24.082Z,50.45
2022-11-29T01:28:10.177Z,45.92
2022-11-29T01:30:57.925Z,50.60
2022-11-29T01:33:44.236Z,37.50
2022-11-29T01:36:30.936Z,33.22
2022-11-29T01:39:17.231Z,38.47
2022-11-29T01:42:03.249Z,41.25
2022-11-29T01:45:19.968Z,40.03
2022-11-29T01:48:07.660Z,40.20
2022-11-29T01:50:55.450Z,44.75
2022-11-29T01:53:41.556Z,48.83
2022-11-29T01:56:29.608Z,38.65
2022-11-29T01:59:20.295Z,43.97
2022-11-29T02:02:13.419Z,40.97
2022-11-29T02:05:03.480Z,49.13
2022-11-29T02:07:53.886Z,46.22
2022-11-29T02:11:00.519Z,43.58
2022-11-29T02:13:56.032Z,56.25
2022-11-29T02:16:56.402Z,46.25
2022-11-29T02:20:25.517Z,44.65
2022-11-29T02:23:29.125Z,43.30
2022-11-29T02:26:34.209Z,50.05
2022-11-29T02:29:38.634Z,55.03
2022-11-29T02:33:01.793Z,53.03
2022-11-29T02:36:26.772Z,44.60
2022-11-29T02:39:36.059Z,46.10
2022-11-29T02:42:55.740Z,42.90
2022-11-29T02:45:59.678Z,37.58
2022-11-29T02:52:55.781Z,36.95
2022-11-29T02:55:48.345Z,42.40
2022-11-29T02:58:42.869Z,50.90
2022-11-29T03:01:37.356Z,52.38
2022-11-29T03:04:32.962Z,44.35
2022-11-29T03:07:26.163Z,48.60
2022-11-29T03:10:25.863Z,69.90
2022-11-29T03:13:20.642Z,105.07
2022-11-29T03:16:15.009Z,65.85
2022-11-29T03:19:12.270Z,68.70
2022-11-29T03:22:09.237Z,77.80
2022-11-29T03:25:03.096Z,79.90
2022-11-29T03:27:58.301Z,102.55
2022-11-29T03:30:50.245Z,77.43
2022-11-29T03:33:43.115Z,66.85
2022-11-29T03:36:40.749Z,98.03
2022-11-29T03:39:34.217Z,90.57
2022-11-29T03:42:26.013Z,70.00
2022-11-29T03:45:21.416Z,57.13
2022-11-29T03:48:11.372Z,72.55
2022-11-29T03:51:02.717Z,56.63
2022-11-29T03:53:54.435Z,51.47
2022-11-29T03:56:41.962Z,56.10
2022-11-29T03:59:48.017Z,64.47
2022-11-29T04:03:02.904Z,51.10
2022-11-29T04:06:04.947Z,49.63
2022-11-29T04:09:31.913Z,41.10
2022-11-29T04:12:46.338Z,43.10
2022-11-29T04:15:56.826Z,58.97
2022-11-29T04:19:10.475Z,35.42
2022-11-29T04:22:38.239Z,74.65
2022-11-29T04:25:49.870Z,53.20
2022-11-29T04:29:05.746Z,70.03
2022-11-29T04:32:15.768Z,84.03
2022-11-29T04:35:19.591Z,65.70
2022-11-29T04:38:38.395Z,103.60
2022-11-29T04:41:53.739Z,114.13
2022-11-29T04:45:07.535Z,95.70
2022-11-29T04:48:03.830Z,84.45
2022-11-29T04:51:00.364Z,85.53
2022-11-29T04:53:54.774Z,94.65
2022-11-29T04:56:45.632Z,87.65
2022-11-29T04:59:40.580Z,83.25
2022-11-29T05:02:34.476Z,72.32
2022-11-29T05:05:30.652Z,88.75
2022-11-29T05:08:28.927Z,72.65
2022-11-29T05:11:26.306Z,75.15
2022-11-29T05:14:27.203Z,93.50
2022-11-29T05:17:31.667Z,100.63
2022-11-29T05:20:32.498Z,95.57
2022-11-29T05:23:30.207Z,88.75
2022-11-29T05:26:23.495Z,87.65
2022-11-29T05:29:13.952Z,75.60
2022-11-29T05:32:13.716Z,77.35
2022-11-29T05:35:24.826Z,93.20
2022-11-29T05:38:29.718Z,72.35
2022-11-29T05:41:33.765Z,74.60
2022-11-29T05:44:28.804Z,69.05
2022-11-29T05:47:24.667Z,68.68
2022-11-29T05:50:22.610Z,68.10
2022-11-29T05:53:21.985Z,74.60
2022-11-29T05:56:16.240Z,56.35
2022-11-29T05:59:08.687Z,85.28
2022-11-29T06:02:05.856Z,76.68
2022-11-29T06:05:06.448Z,68.13
2022-11-29T06:07:58.700Z,62.25
2022-11-29T06:10:56.907Z,72.10
2022-11-29T06:14:05.507Z,58.25
2022-11-29T06:17:18.268Z,74.30
2022-11-29T06:20:26.306Z,68.35
2022-11-29T06:23:33.108Z,72.32
2022-11-29T06:26:34.229Z,50.45
2022-11-29T06:29:29.024Z,58.80
2022-11-29T06:32:26.207Z,58.95
2022-11-29T06:35:29.650Z,51.63
2022-11-29T06:38:22.391Z,62.30
2022-11-29T06:41:14.052Z,61.35
2022-11-29T06:44:00.945Z,58.33
2022-11-29T06:46:52.951Z,52.97
2022-11-29T06:49:45.397Z,57.05
2022-11-29T06:52:43.370Z,51.25
2022-11-29T06:55:40.610Z,47.35
2022-11-29T06:58:42.954Z,59.42
2022-11-29T07:01:37.117Z,59.42
2022-11-29T07:04:45.616Z,52.58
2022-11-29T07:07:35.093Z,47.67
2022-11-29T07:10:22.507Z,38.92
2022-11-29T07:13:08.982Z,45.33
2022-11-29T07:16:04.200Z,53.95
2022-11-29T07:18:58.195Z,54.22
2022-11-29T07:21:58.102Z,58.95
2022-11-29T07:24:57.903Z,70.53
2022-11-29T07:27:54.422Z,59.38
2022-11-29T07:30:47.810Z,67.80
2022-11-29T07:33:45.270Z,81.80
2022-11-29T07:36:40.345Z,67.70
2022-11-29T07:39:40.621Z,56.97
2022-11-29T07:42:32.574Z,54.35
2022-11-29T07:45:25.243Z,52.83
2022-11-29T07:48:13.382Z,60.20
2022-11-29T07:50:59.665Z,49.08
2022-11-29T07:53:46.257Z,51.75
2022-11-29T07:56:33.747Z,58.97
2022-11-29T07:59:20.389Z,53.10
2022-11-29T08:02:11.601Z,50.85
2022-11-29T08:04:58.862Z,45.95
2022-11-29T08:07:44.938Z,48.47
2022-11-29T08:10:32.275Z,63.97
2022-11-29T08:13:21.526Z,70.50
2022-11-29T08:16:08.591Z,68.93
2022-11-29T08:18:55.152Z,54.60
2022-11-29T08:21:44.214Z,67.70
2022-11-29T08:24:30.577Z,55.30
2022-11-29T08:27:16.595Z,56.63
2022-11-29T08:30:04.910Z,47.08
2022-11-29T08:32:52.150Z,55.78
2022-11-29T08:35:39.812Z,58.67
2022-11-29T08:38:26.134Z,68.22
2022-11-29T08:41:15.664Z,63.22
2022-11-29T08:44:01.792Z,51.53
2022-11-29T08:47:06.838Z,62.17
2022-11-29T08:50:07.016Z,56.95
2022-11-29T08:53:10.417Z,57.05
2022-11-29T08:56:01.071Z,54.67
2022-11-29T08:58:47.908Z,53.63
2022-11-29T09:01:33.973Z,57.78
2022-11-29T09:04:21.837Z,55.08
2022-11-29T09:07:07.899Z,57.40
2022-11-29T09:09:53.852Z,81.15
2022-11-29T09:12:41.579Z,52.75
2022-11-29T09:15:27.710Z,58.92
2022-11-29T09:18:14.409Z,48.20
2022-11-29T09:21:01.710Z,56.33
2022-11-29T09:23:47.809Z,68.90
2022-11-29T09:26:36.766Z,63.20
2022-11-29T09:29:23.068Z,68.93
2022-11-29T09:32:09.224Z,67.25
2022-11-29T09:34:55.678Z,70.13
2022-11-29T09:37:44.311Z,63.22
2022-11-29T09:40:34.868Z,78.07
2022-11-29T09:43:27.570Z,68.15
2022-11-29T09:46:25.812Z,61.45
2022-11-29T09:49:40.842Z,58.03
2022-11-29T09:52:37.704Z,52.75
2022-11-29T09:55:39.491Z,66.47
2022-11-29T09:58:30.178Z,62.35
2022-11-29T10:01:23.045Z,59.83
2022-11-29T10:04:13.662Z,60.83
2022-11-29T10:07:05.687Z,77.57
2022-11-29T10:09:57.936Z,61.55
2022-11-29T10:12:49.548Z,57.50
2022-11-29T10:15:42.091Z,81.05
2022-11-29T10:18:34.626Z,71.32
2022-11-29T10:21:24.981Z,55.15
2022-11-29T10:24:17.755Z,61.72
2022-11-29T10:27:14.896Z,79.60
2022-11-29T10:30:02.708Z,50.92
2022-11-29T10:32:55.648Z,68.95
2022-11-29T10:35:42.184Z,52.25
2022-11-29T10:38:31.112Z,61.78
2022-11-29T10:41:22.482Z,58.90
2022-11-29T10:44:14.490Z,61.78
2022-11-29T10:47:10.420Z,70.43
2022-11-29T10:49:57.666Z,67.55
2022-11-29T10:52:43.903Z,60.25
2022-11-29T10:55:36.037Z,62.17
2022-11-29T10:58:28.386Z,55.70
2022-11-29T11:01:17.684Z,57.67
2022-11-29T11:04:09.888Z,53.90
2022-11-29T11:06:57.666Z,52.63
2022-11-29T11:09:49.525Z,52.67
2022-11-29T11:12:36.803Z,55.23
2022-11-29T11:15:29.085Z,50.20
2022-11-29T11:18:21.993Z,49.58
2022-11-29T11:21:12.977Z,57.67
2022-11-29T11:24:02.661Z,55.63
2022-11-29T11:26:49.220Z,51.35
2022-11-29T11:29:38.671Z,53.17
2022-11-29T11:32:24.960Z,78.18
2022-11-29T11:35:24.559Z,73.82
2022-11-29T11:38:18.430Z,74.53
2022-11-29T11:41:16.327Z,67.03
2022-11-29T11:44:07.070Z,70.28
2022-11-29T11:47:02.232Z,87.72
2022-11-29T11:49:50.486Z,65.40
2022-11-29T11:52:44.853Z,76.40
2022-11-29T11:55:40.793Z,78.85
2022-11-29T11:58:29.623Z,80.07
2022-11-29T12:01:18.218Z,88.93
2022-11-29T12:04:07.332Z,110.90
2022-11-29T12:06:57.822Z,127.50
2022-11-29T12:09:48.964Z,118.28
2022-11-29T12:12:41.102Z,132.07
2022-11-29T12:15:31.643Z,149.43
2022-11-29T12:18:25.654Z,124.50
2022-11-29T12:21:16.446Z,160.98
2022-11-29T12:24:09.996Z,118.53
2022-11-29T12:27:01.563Z,119.15
2022-11-29T12:29:49.393Z,128.90
2022-11-29T12:32:50.204Z,133.98
2022-11-29T12:35:49.907Z,168.63
2022-11-29T12:38:47.968Z,168.90
2022-11-29T12:41:48.343Z,151.50
2022-11-29T12:44:49.268Z,189.48
2022-11-29T12:47:52.085Z,157.23
2022-11-29T12:50:49.821Z,153.00
2022-11-29T12:53:49.947Z,199.07
2022-11-29T12:56:42.234Z,183.68
2022-11-29T13:00:38.425Z,162.27
2022-11-29T13:03:34.790Z,193.45
2022-11-29T13:06:28.514Z,169.65
2022-11-29T13:09:38.709Z,155.45
2022-11-29T13:12:33.008Z,149.95
2022-11-29T13:15:21.521Z,190.80
2022-11-29T13:18:19.914Z,177.65
2022-11-29T13:21:14.216Z,186.75
2022-11-29T13:24:08.826Z,168.35
2022-11-29T13:26:57.271Z,178.85
2022-11-29T13:29:43.514Z,151.75
2022-11-29T13:32:35.613Z,179.10
2022-11-29T13:35:26.414Z,156.32
2022-11-29T13:38:23.682Z,183.32
2022-11-29T13:41:21.128Z,162.35
2022-11-29T13:43:56.114Z,144.40
2022-11-29T13:46:29.338Z,144.00
2022-11-29T13:48:57.218Z,156.35
2022-11-29T13:51:32.362Z,161.65
2022-11-29T13:54:04.165Z,141.07
2022-11-29T13:56:42.789Z,131.27
2022-11-29T13:59:19.282Z,120.18
2022-11-29T14:01:50.232Z,109.85
2022-11-29T14:04:35.550Z,121.35
2022-11-29T14:07:11.304Z,108.72
2022-11-29T14:10:00.050Z,89.32
2022-11-29T14:12:36.703Z,84.50
2022-11-29T14:15:18.507Z,98.07
2022-11-29T14:17:52.674Z,77.03
2022-11-29T14:20:57.377Z,86.65
2022-11-29T14:23:34.181Z,75.00
2022-11-29T14:26:33.494Z,78.32
2022-11-29T14:29:01.539Z,64.97
2022-11-29T14:31:49.557Z,74.18
2022-11-29T14:34:27.412Z,82.97
2022-11-29T14:37:00.253Z,96.25
2022-11-29T14:39:34.960Z,83.90
2022-11-29T14:42:14.345Z,78.20
2022-11-29T14:44:49.072Z,80.60
2022-11-29T14:47:24.071Z,69.10
2022-11-29T14:49:53.952Z,73.10
2022-11-29T14:52:27.571Z,73.05
2022-11-29T14:55:01.627Z,66.68
2022-11-29T14:58:05.737Z,81.70
2022-11-29T15:00:43.113Z,57.40
2022-11-29T15:03:14.667Z,57.50
2022-11-29T15:05:44.984Z,61.55
2022-11-29T15:08:18.852Z,68.15
2022-11-29T15:10:51.950Z,65.47
2022-11-29T15:13:27.081Z,67.20
2022-11-29T15:16:13.801Z,59.10
2022-11-29T15:19:13.167Z,68.18
2022-11-29T15:21:48.915Z,72.00
2022-11-29T15:24:19.119Z,61.40
2022-11-29T15:26:58.251Z,58.78
2022-11-29T15:29:28.890Z,66.43
2022-11-29T15:31:58.931Z,62.08
2022-11-29T15:34:32.554Z,72.88
2022-11-29T15:37:00.777Z,61.28
2022-11-29T15:39:31.651Z,69.72
2022-11-29T15:42:04.879Z,66.88
2022-11-29T15:44:34.129Z,68.43
2022-11-29T15:47:23.627Z,73.60
2022-11-29T15:49:51.492Z,68.13
2022-11-29T15:52:25.489Z,53.05
2022-11-29T15:54:57.629Z,57.40
2022-11-29T15:57:28.884Z,78.22
2022-11-29T16:00:01.952Z,79.68
2022-11-29T16:02:35.508Z,78.30
2022-11-29T16:05:10.631Z,63.58
2022-11-29T16:07:40.829Z,76.40
2022-11-29T16:10:15.428Z,60.53
2022-11-29T16:12:53.859Z,53.33
2022-11-29T16:15:29.541Z,67.20
2022-11-29T16:17:57.378Z,68.47
2022-11-29T16:20:26.727Z,64.32
2022-11-29T16:23:05.599Z,60.92
2022-11-29T16:25:37.542Z,58.90
2022-11-29T16:28:06.170Z,71.57
2022-11-29T16:30:35.403Z,63.80
2022-11-29T16:33:03.882Z,78.63
2022-11-29T16:35:33.729Z,70.25
2022-11-29T16:38:05.038Z,69.70
2022-11-29T16:40:35.532Z,60.25
2022-11-29T16:43:09.503Z,70.30
2022-11-29T16:45:40.988Z,77.53
2022-11-29T16:48:31.461Z,76.55
2022-11-29T16:51:18.160Z,80.78
2022-11-29T16:53:47.719Z,87.18
2022-11-29T16:56:17.287Z,83.18
2022-11-29T16:59:25.303Z,90.75
2022-11-29T17:01:37.411Z,95.68
2022-11-29T17:04:05.472Z,77.10
2022-11-29T17:06:33.101Z,91.70
2022-11-29T17:09:00.779Z,83.63
2022-11-29T17:11:28.475Z,81.13
2022-11-29T17:13:56.075Z,82.50
2022-11-29T17:16:25.549Z,105.07
2022-11-29T17:18:54.612Z,105.43
2022-11-29T17:21:24.075Z,107.57
2022-11-29T17:23:52.243Z,91.95
2022-11-29T17:26:20.638Z,113.60
2022-11-29T17:28:50.206Z,100.20
2022-11-29T17:31:20.284Z,94.65
2022-11-29T17:33:48.131Z,99.18
2022-11-29T17:36:21.105Z,86.15
2022-11-29T17:38:49.354Z,104.95
2022-11-29T17:41:20.749Z,84.38
2022-11-29T17:43:49.011Z,107.43
2022-11-29T17:46:18.619Z,85.22
2022-11-29T17:48:46.481Z,85.72
2022-11-29T17:51:43.910Z,107.35
2022-11-29T17:54:04.902Z,103.65
2022-11-29T17:56:32.576Z,92.60
2022-11-29T17:59:02.446Z,76.68
2022-11-29T18:01:32.793Z,111.45
2022-11-29T18:04:02.256Z,114.90
2022-11-29T18:06:31.901Z,82.30
2022-11-29T18:09:01.335Z,110.72
2022-11-29T18:11:36.516Z,109.95
2022-11-29T18:14:12.105Z,101.15
2022-11-29T18:16:40.206Z,101.68
2022-11-29T18:19:09.992Z,85.55
2022-11-29T18:21:38.399Z,99.07
2022-11-29T18:24:07.872Z,108.90
2022-11-29T18:26:37.794Z,85.30
2022-11-29T18:29:05.991Z,89.05
2022-11-29T18:31:35.415Z,76.80
2022-11-29T18:34:06.717Z,88.75
2022-11-29T18:36:36.805Z,87.63
2022-11-29T18:39:06.924Z,87.88
2022-11-29T18:41:34.630Z,112.22
2022-11-29T18:44:06.799Z,95.80
2022-11-29T18:46:37.278Z,90.28
2022-11-29T18:49:06.534Z,78.38
2022-11-29T18:51:35.299Z,108.97
2022-11-29T18:54:03.800Z,110.32
2022-11-29T18:56:34.697Z,110.75
2022-11-29T18:59:05.921Z,98.15
2022-11-29T19:01:35.314Z,112.38
2022-11-29T19:04:03.324Z,108.65
2022-11-29T19:06:38.910Z,94.22
2022-11-29T19:09:08.543Z,91.57
2022-11-29T19:11:36.210Z,96.28
2022-11-29T19:14:10.952Z,109.25
2022-11-29T19:16:40.384Z,86.25
2022-11-29T19:19:08.346Z,104.35
2022-11-29T19:21:36.046Z,92.68
2022-11-29T19:24:07.540Z,79.47
2022-11-29T19:26:35.954Z,95.68
2022-11-29T19:29:05.054Z,83.82
2022-11-29T19:31:32.661Z,104.38
2022-11-29T19:34:00.311Z,88.82
2022-11-29T19:36:29.472Z,86.78
2022-11-29T19:38:57.925Z,78.78
2022-11-29T19:41:27.454Z,70.90
2022-11-29T19:43:57.201Z,87.25
2022-11-29T19:46:27.605Z,84.28
2022-11-29T19:48:56.546Z,85.38
2022-11-29T19:51:25.269Z,71.28
2022-11-29T19:53:54.014Z,106.53
2022-11-29T19:56:22.684Z,69.85
2022-11-29T19:58:50.349Z,91.35
2022-11-29T20:01:20.003Z,93.35
2022-11-29T20:03:49.318Z,88.63
2022-11-29T20:06:17.762Z,112.03
2022-11-29T20:08:46.153Z,103.22
2022-11-29T20:11:16.225Z,83.85
2022-11-29T20:13:46.220Z,88.10
2022-11-29T20:16:16.960Z,102.97
2022-11-29T20:18:50.639Z,88.53
2022-11-29T20:21:24.112Z,105.80
2022-11-29T20:23:56.183Z,100.82
2022-11-29T20:26:24.151Z,90.25
2022-11-29T20:28:52.094Z,87.18
2022-11-29T20:31:23.088Z,94.82
2022-11-29T20:33:53.357Z,90.15
2022-11-29T20:36:32.388Z,95.05
2022-11-29T20:39:11.679Z,93.30
2022-11-29T20:41:44.147Z,83.88
2022-11-29T20:44:18.050Z,100.40
2022-11-29T20:46:46.080Z,106.15
2022-11-29T20:49:14.141Z,93.78
2022-11-29T20:51:55.881Z,81.93
2022-11-29T20:54:23.569Z,113.72
2022-11-29T20:56:51.253Z,86.32
2022-11-29T20:59:18.937Z,91.85
2022-11-29T21:01:46.627Z,104.60
2022-11-29T21:04:17.695Z,90.57
2022-11-29T21:06:49.314Z,110.78
2022-11-29T21:09:16.943Z,117.30
2022-11-29T21:11:45.012Z,70.78
2022-11-29T21:14:13.289Z,87.63
2022-11-29T21:16:41.380Z,90.93
2022-11-29T21:19:20.210Z,119.18
2022-11-29T21:22:05.421Z,80.00
2022-11-29T21:24:45.979Z,92.03
2022-11-29T21:27:18.760Z,100.10
2022-11-29T21:29:46.883Z,86.60
2022-11-29T21:32:22.129Z,116.53
2022-11-29T21:34:49.912Z,105.97
2022-11-29T21:37:21.308Z,105.72
2022-11-29T21:39:51.462Z,99.22
2022-11-29T21:42:19.108Z,131.88
2022-11-29T21:44:47.074Z,118.43
2022-11-29T21:47:15.037Z,107.70
2022-11-29T21:49:42.750Z,101.68
2022-11-29T21:52:10.385Z,118.80
2022-11-29T21:54:40.034Z,109.13
2022-11-29T21:57:07.661Z,125.80
2022-11-29T21:59:35.464Z,103.55
2022-11-29T22:02:03.182Z,98.13
2022-11-29T22:04:30.966Z,110.95
2022-11-29T22:06:58.578Z,121.63
2022-11-29T22:09:26.275Z,136.20
2022-11-29T22:11:55.437Z,117.80
2022-11-29T22:14:23.739Z,131.60
2022-11-29T22:16:53.433Z,146.50
2022-11-29T22:19:23.010Z,121.78
2022-11-29T22:21:52.481Z,127.57
2022-11-29T22:24:22.181Z,128.43
2022-11-29T22:26:51.052Z,136.90
2022-11-29T22:29:20.877Z,129.60
2022-11-29T22:31:50.147Z,124.10
2022-11-29T22:34:17.887Z,124.03
2022-11-29T22:36:45.945Z,109.22
2022-11-29T22:39:14.138Z,115.97
2022-11-29T22:41:42.602Z,109.53
2022-11-29T22:44:10.468Z,136.40
2022-11-29T22:46:40.468Z,163.25
2022-11-29T22:49:08.171Z,154.20
2022-11-29T22:51:37.097Z,89.68
2022-11-29T22:54:06.832Z,110.05
2022-11-29T22:56:37.451Z,157.50
2022-11-29T22:59:05.676Z,86.18
2022-11-29T23:01:34.967Z,107.10
2022-11-29T23:04:07.039Z,103.85
2022-11-29T23:06:36.912Z,126.10
2022-11-29T23:09:07.506Z,137.90
2022-11-29T23:11:35.144Z,157.82
2022-11-29T23:14:02.931Z,88.97
2022-11-29T23:16:32.652Z,138.68
2022-11-29T23:19:01.107Z,175.88
2022-11-29T23:21:31.644Z,208.73
2022-11-29T23:24:00.750Z,106.10
2022-11-29T23:26:30.567Z,150.45
2022-11-29T23:28:59.592Z,162.93
2022-11-29T23:31:27.253Z,202.00
2022-11-29T23:33:55.335Z,219.80
2022-11-29T23:36:23.078Z,196.55
2022-11-29T23:38:52.542Z,198.35
2022-11-29T23:41:20.410Z,255.77
2022-11-29T23:43:48.196Z,210.38
2022-11-29T23:46:17.928Z,153.68
2022-11-29T23:48:45.853Z,151.95
2022-11-29T23:51:14.532Z,98.90
2022-11-29T23:53:42.821Z,154.32
2022-11-29T23:56:14.260Z,136.00
2022-11-29T23:58:42.777Z,184.60
